| Date | Time | Temp. (oF) | Dew Point (oF) | Rel. Hum. (%) | Press. (in.) | Wind Dir. | Wind Speed (mph) | Hourly Rainfall (in.) |
|
|---|---|---|---|---|---|---|---|---|---|
| 1 | 06/27 | 00:00 | 73 | 67 | 84 | 29.85 | SSW | 0 | 0.00 |
| 2 | 06/26 | 23:00 | 75 | 67 | 78 | 29.86 | SSW | 0 | 0.00 |
| 3 | 06/26 | 22:00 | 77 | 66 | 71 | 29.84 | WSW | 0 | 0.00 |
| 4 | 06/26 | 21:00 | 81 | 66 | 61 | 29.82 | WNW | 2 | 0.00 |
| 5 | 06/26 | 20:00 | 86 | 65 | 51 | 29.80 | NW | 1 | 0.00 |
| 6 | 06/26 | 19:00 | 88 | 65 | 47 | 29.77 | NW | 1 | 0.00 |
| 7 | 06/26 | 18:00 | 88 | 65 | 47 | 29.76 | W | 10 | 0.00 |
| 8 | 06/26 | 17:00 | 88 | 65 | 47 | 29.78 | NW | 7 | 0.00 |
| 9 | 06/26 | 16:00 | 86 | 64 | 49 | 29.83 | WSW | 8 | 0.00 |
| 10 | 06/26 | 15:00 | 86 | 63 | 48 | 29.85 | NW | 11 | 0.00 |
| 11 | 06/26 | 14:00 | 82 | 66 | 59 | 29.87 | SW | 9 | 0.00 |
| 12 | 06/26 | 13:00 | 83 | 66 | 58 | 29.88 | NW | 2 | 0.00 |
| 13 | 06/26 | 12:00 | 82 | 67 | 62 | 29.89 | SSW | 8 | 0.00 |
| 14 | 06/26 | 11:00 | 76 | 69 | 80 | 29.91 | SSE | 0 | 0.01 |
| 15 | 06/26 | 10:00 | 75 | 65 | 73 | 29.93 | W | 2 | 0.00 |
| 16 | 06/26 | 09:00 | 74 | 65 | 74 | 29.95 | WSW | 0 | 0.00 |
| 17 | 06/26 | 08:00 | 72 | 65 | 80 | 29.95 | SSW | 5 | 0.00 |
| 18 | 06/26 | 07:00 | 68 | 62 | 84 | 29.95 | SE | 0 | 0.00 |
| 19 | 06/26 | 06:00 | 68 | 61 | 81 | 29.96 | SSE | 0 | 0.00 |
| 20 | 06/26 | 05:00 | 68 | 61 | 79 | 29.96 | SSE | 0 | 0.00 |
| 21 | 06/26 | 04:00 | 68 | 61 | 79 | 29.98 | SSW | 0 | 0.00 |
| 22 | 06/26 | 03:00 | 69 | 60 | 74 | 30.00 | SW | 0 | 0.00 |
| 23 | 06/26 | 02:00 | 71 | 60 | 69 | 30.01 | SW | 0 | 0.00 |
| 24 | 06/26 | 01:00 | 72 | 59 | 66 | 30.01 | SSW | 3 | 0.00 |